Time;durP1;ratioP1;P1;durP2;ratioP2;P2;SDS_P1;SDS_P2;PMS_P1;PMS_P2;Temp;Humidity;BMP_temperature;BMP_pressure;BME280_temperature;BME280_humidity;BME280_pressure;Samples;Min_cycle;Max_cycle;Signal;HPM_P1;HPM_P2
2022/08/01 00:00:47;;;;;;;55.47;39.27;;;;;;;18.65;100.00;101182.81;5012916;28;20440;-47
2022/08/01 00:03:14;;;;;;;60.90;40.73;;;;;;;18.66;100.00;101189.06;5012766;28;20443;-47
2022/08/01 00:05:45;;;;;;;64.90;38.83;;;;;;;18.63;100.00;101186.84;5012829;28;20538;-47
2022/08/01 00:08:12;;;;;;;51.00;36.47;;;;;;;18.59;100.00;101188.34;5011504;28;20536;-46
2022/08/01 00:10:40;;;;;;;70.10;43.00;;;;;;;18.46;100.00;101194.81;5012996;28;20433;-44
2022/08/01 00:13:07;;;;;;;63.20;39.90;;;;;;;18.42;100.00;101193.66;5012611;28;20440;-43
2022/08/01 00:15:37;;;;;;;66.03;41.17;;;;;;;18.35;100.00;101198.34;5012748;28;20455;-47
2022/08/01 00:18:04;;;;;;;93.30;45.30;;;;;;;18.30;100.00;101205.50;5011511;28;20464;-44
2022/08/01 00:20:32;;;;;;;51.00;35.23;;;;;;;18.27;100.00;101195.19;5012692;28;20830;-47
2022/08/01 00:23:03;;;;;;;60.67;40.30;;;;;;;18.26;99.17;101197.06;5011498;28;20433;-44
2022/08/01 00:25:31;;;;;;;63.33;38.63;;;;;;;18.30;98.59;101197.41;5012496;28;20512;-44
2022/08/01 00:28:01;;;;;;;64.63;40.20;;;;;;;18.23;98.83;101192.13;5011934;28;20796;-48
2022/08/01 00:30:30;;;;;;;58.50;38.97;;;;;;;18.21;97.68;101195.09;5012476;28;20822;-44
2022/08/01 00:32:58;;;;;;;56.77;38.47;;;;;;;18.22;96.78;101195.88;5012124;28;20433;-47
2022/08/01 00:35:25;;;;;;;47.50;34.10;;;;;;;18.17;96.59;101195.78;5012084;28;20436;-44
2022/08/01 00:37:53;;;;;;;42.67;32.97;;;;;;;18.11;96.93;101192.13;5012109;28;20432;-46
2022/08/01 00:40:23;;;;;;;50.83;37.30;;;;;;;18.12;95.71;101201.06;5012184;28;20924;-45
2022/08/01 00:42:50;;;;;;;47.80;33.97;;;;;;;18.14;94.99;101197.06;5012113;28;20440;-44
2022/08/01 00:45:18;;;;;;;40.07;31.83;;;;;;;18.09;94.25;101194.25;5012125;28;20443;-46
2022/08/01 00:47:46;;;;;;;41.43;31.60;;;;;;;18.07;91.88;101193.66;5011710;28;20468;-50
2022/08/01 00:50:21;;;;;;;39.60;32.53;;;;;;;18.00;90.85;101195.66;5012334;28;20516;-45
2022/08/01 00:52:51;;;;;;;36.27;28.03;;;;;;;17.93;90.71;101200.34;5012109;28;20432;-44
2022/08/01 00:55:19;;;;;;;35.93;29.20;;;;;;;17.91;89.11;101205.16;5012138;28;20436;-44
2022/08/01 00:57:49;;;;;;;45.40;32.13;;;;;;;17.86;87.46;101196.13;5011705;28;20466;-46
2022/08/01 01:00:33;;;;;;;40.10;31.17;;;;;;;17.86;87.55;101204.22;5011902;28;20950;-45
2022/08/01 01:03:24;;;;;;;43.60;31.90;;;;;;;17.78;86.83;101199.97;5011963;28;20437;-44
2022/08/01 01:06:26;;;;;;;41.50;32.57;;;;;;;17.80;86.82;101200.56;5011715;28;21165;-45
2022/08/01 01:09:04;;;;;;;45.60;34.53;;;;;;;17.77;87.27;101206.41;5011572;28;20469;-45
2022/08/01 01:11:39;;;;;;;46.70;34.10;;;;;;;17.75;86.97;101213.94;5012102;28;20425;-44
2022/08/01 01:14:14;;;;;;;46.40;34.70;;;;;;;17.76;85.63;101207.50;5011878;28;20440;-44
2022/08/01 01:16:44;;;;;;;45.07;33.63;;;;;;;17.77;84.42;101201.03;5011893;28;20448;-46
2022/08/01 01:19:17;;;;;;;37.77;30.43;;;;;;;17.76;86.30;101210.19;5011433;28;21004;-46
2022/08/01 01:22:20;;;;;;;38.00;31.03;;;;;;;17.81;85.08;101201.38;5012108;28;20802;-45
2022/08/01 01:25:03;;;;;;;43.83;31.93;;;;;;;17.84;85.39;101201.75;5011767;28;20429;-47
2022/08/01 01:27:42;;;;;;;39.00;29.83;;;;;;;17.82;87.22;101197.63;5011562;28;20476;-45
2022/08/01 01:30:12;;;;;;;31.40;26.90;;;;;;;17.80;88.56;101195.16;5012007;28;20447;-46
2022/08/01 01:32:44;;;;;;;34.70;28.47;;;;;;;17.76;89.18;101199.41;5011442;28;20443;-45
2022/08/01 01:35:16;;;;;;;35.90;26.10;;;;;;;17.76;89.75;101185.91;5014236;28;20433;-48
2022/08/01 01:37:47;;;;;;;33.07;27.33;;;;;;;17.79;89.66;101190.84;5015354;28;20427;-46
2022/08/01 01:40:16;;;;;;;32.07;26.13;;;;;;;17.80;90.24;101191.66;5015668;28;20428;-45
2022/08/01 01:42:45;;;;;;;27.40;24.53;;;;;;;17.76;92.60;101202.09;5015474;28;20433;-45
2022/08/01 01:45:15;;;;;;;36.90;29.23;;;;;;;17.76;92.17;101201.28;5015506;28;20437;-46
2022/08/01 01:47:45;;;;;;;35.93;29.33;;;;;;;17.74;91.53;101209.56;5014995;28;20476;-46
2022/08/01 01:50:14;;;;;;;30.60;26.80;;;;;;;17.74;90.87;101209.56;5015457;28;20441;-46
2022/08/01 01:52:45;;;;;;;33.80;28.77;;;;;;;17.76;91.51;101212.06;5014917;28;20436;-49
2022/08/01 01:55:13;;;;;;;29.97;26.57;;;;;;;17.72;91.29;101221.66;5015506;28;20429;-46
2022/08/01 01:57:43;;;;;;;29.20;25.13;;;;;;;17.71;91.36;101222.72;5015034;28;20425;-47
2022/08/01 02:00:13;;;;;;;31.20;25.57;;;;;;;17.69;90.37;101221.06;5015404;28;20859;-48
2022/08/01 02:02:42;;;;;;;34.33;28.10;;;;;;;17.74;89.47;101219.56;5014825;28;20934;-48
2022/08/01 02:05:12;;;;;;;28.67;25.27;;;;;;;17.70;90.22;101221.91;5015100;28;20432;-49
2022/08/01 02:07:40;;;;;;;26.93;22.77;;;;;;;17.64;89.69;101225.53;5014582;28;20476;-46
2022/08/01 02:10:11;;;;;;;28.50;24.13;;;;;;;17.65;89.24;101227.19;5015120;28;20451;-45
2022/08/01 02:12:41;;;;;;;26.10;22.17;;;;;;;17.66;87.77;101223.41;5014925;28;20433;-46
2022/08/01 02:15:12;;;;;;;25.70;22.97;;;;;;;17.64;88.18;101228.22;5014939;28;20641;-48
2022/08/01 02:17:45;;;;;;;26.30;23.60;;;;;;;17.65;87.16;101221.78;5014505;28;20449;-48
2022/08/01 02:20:13;;;;;;;27.30;24.40;;;;;;;17.62;87.52;101219.56;5015062;28;20437;-46
2022/08/01 02:22:45;;;;;;;27.60;24.20;;;;;;;17.63;85.68;101215.78;5014491;28;20938;-44
2022/08/01 02:25:21;;;;;;;27.40;23.47;;;;;;;17.62;85.43;101217.66;5014846;28;20429;-44
2022/08/01 02:28:00;;;;;;;29.30;24.40;;;;;;;17.63;86.42;101215.78;5014153;28;20846;-45
2022/08/01 02:30:32;;;;;;;29.73;22.20;;;;;;;17.60;85.54;101222.47;5014944;28;20432;-44
2022/08/01 02:33:05;;;;;;;28.50;22.87;;;;;;;17.63;85.48;101218.47;5014268;28;20524;-47
2022/08/01 02:35:44;;;;;;;26.63;20.07;;;;;;;17.58;85.90;101221.06;5014490;28;20587;-47
2022/08/01 02:38:34;;;;;;;31.43;22.03;;;;;;;17.56;84.93;101220.47;5013968;28;20973;-45
2022/08/01 02:41:08;;;;;;;23.80;21.50;;;;;;;17.55;83.43;101213.44;5014851;28;20433;-44
2022/08/01 02:43:38;;;;;;;22.97;20.33;;;;;;;17.56;82.79;101217.78;5014532;28;20440;-46
2022/08/01 02:46:09;;;;;;;22.50;18.73;;;;;;;17.53;83.58;101208.22;5013590;28;20485;-45
2022/08/01 02:48:42;;;;;;;20.40;18.20;;;;;;;17.52;84.01;101211.97;5013766;28;20552;-49
2022/08/01 02:51:12;;;;;;;19.97;18.00;;;;;;;17.50;84.00;101219.47;5014415;28;20826;-46
2022/08/01 02:53:42;;;;;;;16.47;14.60;;;;;;;17.51;83.50;101225.69;5014144;28;20862;-45
2022/08/01 02:56:12;;;;;;;19.43;17.00;;;;;;;17.50;84.64;101224.06;5014327;28;20483;-44
2022/08/01 02:58:42;;;;;;;17.17;15.47;;;;;;;17.53;84.64;101234.38;5013679;28;20473;-46
2022/08/01 03:01:11;;;;;;;19.23;17.47;;;;;;;17.50;86.04;101227.56;5014289;28;20767;-48
2022/08/01 03:03:40;;;;;;;18.20;16.30;;;;;;;17.52;86.14;101230.88;5014014;28;20491;-43
2022/08/01 03:06:08;;;;;;;17.30;15.50;;;;;;;17.49;86.60;101231.31;5014069;28;20457;-45
2022/08/01 03:08:37;;;;;;;22.00;15.57;;;;;;;17.51;86.18;101234.59;5013541;28;20465;-45
2022/08/01 03:11:07;;;;;;;15.90;13.20;;;;;;;17.56;84.81;101231.25;5013908;28;20791;-44
2022/08/01 03:13:36;;;;;;;15.53;13.97;;;;;;;17.55;86.37;101226.91;5013571;28;20432;-46
2022/08/01 03:16:06;;;;;;;13.57;12.27;;;;;;;17.47;87.87;101228.00;5037170;23;20489;-44
2022/08/01 03:18:36;;;;;;;13.07;11.60;;;;;;;17.43;89.19;101232.25;5013285;28;20461;-44
2022/08/01 03:21:10;;;;;;;12.27;10.30;;;;;;;17.41;89.64;101245.09;5013816;28;20778;-42
2022/08/01 03:23:39;;;;;;;12.20;11.10;;;;;;;17.46;87.75;101247.97;5013493;28;20437;-41
2022/08/01 03:26:07;;;;;;;11.93;10.73;;;;;;;17.44;89.62;101239.25;5013491;28;20460;-43
2022/08/01 03:28:36;;;;;;;11.50;10.37;;;;;;;17.44;89.63;101241.94;5012969;28;20477;-43
2022/08/01 03:31:05;;;;;;;12.03;11.03;;;;;;;17.45;90.44;101246.31;5012707;28;20956;-43
2022/08/01 03:33:33;;;;;;;12.90;11.60;;;;;;;17.47;90.93;101254.97;5013290;28;20433;-48
2022/08/01 03:36:02;;;;;;;12.77;11.43;;;;;;;17.48;90.70;101253.94;5013239;28;20460;-43
2022/08/01 03:38:36;;;;;;;11.33;10.40;;;;;;;17.40;93.64;101253.44;5012967;28;20465;-44
2022/08/01 03:41:10;;;;;;;12.27;11.17;;;;;;;17.42;92.11;101257.53;5013303;28;20435;-44
2022/08/01 03:43:42;;;;;;;12.77;11.47;;;;;;;17.46;89.85;101255.22;5013473;28;20437;-44
2022/08/01 03:46:14;;;;;;;22.83;13.73;;;;;;;17.46;90.82;101263.31;5012349;28;20552;-43
2022/08/01 03:48:48;;;;;;;12.47;11.30;;;;;;;17.41;91.38;101253.19;5010877;28;20469;-42
2022/08/01 03:51:18;;;;;;;13.37;11.83;;;;;;;17.45;90.08;101265.19;5011121;28;20440;-42
2022/08/01 03:53:50;;;;;;;13.77;12.27;;;;;;;17.43;92.19;101261.06;5012699;28;21092;-47
2022/08/01 03:56:20;;;;;;;13.43;11.87;;;;;;;17.45;91.33;101262.47;5013050;28;20453;-40
2022/08/01 03:58:49;;;;;;;13.97;12.77;;;;;;;17.48;92.23;101267.41;5012808;28;20467;-44
2022/08/01 04:01:19;;;;;;;14.23;13.03;;;;;;;17.48;91.46;101263.91;5012851;28;20487;-43
2022/08/01 04:03:47;;;;;;;15.23;13.37;;;;;;;17.49;91.93;101269.06;5012670;28;20791;-41
2022/08/01 04:06:15;;;;;;;15.63;14.00;;;;;;;17.46;92.92;101271.41;5012217;28;20977;-40
2022/08/01 04:08:55;;;;;;;13.50;12.30;;;;;;;17.47;91.77;101275.75;5011333;28;20472;-44
2022/08/01 04:11:25;;;;;;;15.70;14.30;;;;;;;17.42;92.91;101273.72;5012946;28;20437;-42
2022/08/01 04:13:54;;;;;;;13.63;12.40;;;;;;;17.43;91.94;101288.03;5010571;28;20428;-43
2022/08/01 04:16:22;;;;;;;15.90;12.37;;;;;;;17.38;90.86;101282.50;5010626;28;20548;-41
2022/08/01 04:18:50;;;;;;;16.20;13.23;;;;;;;17.34;89.74;101286.69;5010473;28;20461;-44
2022/08/01 04:21:21;;;;;;;14.07;11.60;;;;;;;17.34;90.80;101290.22;5010820;28;20429;-43
2022/08/01 04:23:52;;;;;;;13.03;11.67;;;;;;;17.37;89.69;101292.47;5011045;28;20440;-46
2022/08/01 04:26:23;;;;;;;15.43;12.17;;;;;;;17.41;91.01;101288.25;5011889;28;20483;-45
2022/08/01 04:28:54;;;;;;;11.50;10.23;;;;;;;17.37;93.68;101295.16;5011393;28;20470;-44
2022/08/01 04:31:25;;;;;;;11.67;10.37;;;;;;;17.38;95.10;101301.38;5012498;28;20433;-45
2022/08/01 04:33:55;;;;;;;10.30;9.60;;;;;;;17.38;96.48;101304.88;5010697;28;20439;-46
2022/08/01 04:36:26;;;;;;;10.60;9.27;;;;;;;17.38;98.84;101296.00;5012326;28;20969;-43
2022/08/01 04:38:58;;;;;;;9.50;7.40;;;;;;;17.37;100.00;101307.81;5010211;28;20457;-42
2022/08/01 04:41:26;;;;;;;8.40;7.80;;;;;;;17.41;100.00;101312.50;5010297;28;20436;-43
2022/08/01 04:43:56;;;;;;;9.37;8.53;;;;;;;17.47;100.00;101324.28;5011437;28;20429;-40
2022/08/01 04:46:24;;;;;;;8.13;7.50;;;;;;;17.48;100.00;101324.03;5012242;28;20449;-42
2022/08/01 04:48:53;;;;;;;6.57;6.17;;;;;;;17.42;100.00;101327.66;5011706;28;20480;-44
2022/08/01 04:51:23;;;;;;;5.80;5.50;;;;;;;17.43;100.00;101333.88;5012203;28;20437;-44
2022/08/01 04:53:52;;;;;;;5.00;4.70;;;;;;;17.36;100.00;101335.81;5011718;28;20449;-47
2022/08/01 04:56:22;;;;;;;5.27;4.87;;;;;;;17.30;100.00;101334.03;5012129;28;20453;-45
2022/08/01 04:59:39;;;;;;;5.03;4.40;;;;;;;17.31;100.00;101335.69;5011389;28;20467;-43
2022/08/01 05:01:51;;;;;;;5.50;5.10;;;;;;;17.29;100.00;101341.31;5011707;28;20524;-42
2022/08/01 05:04:24;;;;;;;9.10;6.27;;;;;;;17.30;100.00;101345.63;5011990;28;20429;-45
2022/08/01 05:06:53;;;;;;;6.97;6.47;;;;;;;17.18;100.00;101350.13;5011895;28;20469;-42
2022/08/01 05:09:22;;;;;;;6.20;5.50;;;;;;;17.05;100.00;101344.91;5013433;28;20476;-42
2022/08/01 05:11:58;;;;;;;5.47;5.00;;;;;;;16.99;100.00;101343.09;5017458;28;20499;-44
2022/08/01 05:14:26;;;;;;;6.57;5.17;;;;;;;16.99;100.00;101348.50;5017970;28;20439;-44
2022/08/01 05:16:56;;;;;;;5.37;4.87;;;;;;;16.98;100.00;101353.06;5018530;28;20499;-45
2022/08/01 05:19:23;;;;;;;6.70;5.50;;;;;;;16.92;100.00;101353.13;5016542;28;20499;-42
2022/08/01 05:21:51;;;;;;;5.73;5.03;;;;;;;16.78;100.00;101363.22;5016898;28;20425;-44
2022/08/01 05:24:28;;;;;;;5.43;4.93;;;;;;;16.78;100.00;101363.22;5017660;28;20431;-42
2022/08/01 05:26:59;;;;;;;11.50;8.40;;;;;;;16.63;100.00;101362.75;5018294;28;20822;-42
2022/08/01 05:29:29;;;;;;;15.40;8.90;;;;;;;16.39;100.00;101358.97;5018053;28;20480;-43
2022/08/01 05:31:58;;;;;;;10.57;8.10;;;;;;;16.27;100.00;101370.66;5018319;28;20441;-44
2022/08/01 05:34:27;;;;;;;17.40;8.77;;;;;;;16.16;98.44;101368.69;5018007;28;20487;-43
2022/08/01 05:36:55;;;;;;;15.90;8.47;;;;;;;16.00;100.00;101381.63;5018144;28;20441;-42
2022/08/01 05:39:24;;;;;;;21.03;10.13;;;;;;;15.95;99.74;101389.50;5018193;28;20460;-42
2022/08/01 05:41:52;;;;;;;16.23;8.90;;;;;;;15.94;97.43;101389.72;5018888;28;20445;-42
2022/08/01 05:44:19;;;;;;;12.30;7.60;;;;;;;15.88;100.00;101386.03;5017811;28;20443;-42
2022/08/01 05:46:47;;;;;;;10.10;6.07;;;;;;;15.82;100.00;101408.41;5017936;28;20453;-42
2022/08/01 05:49:16;;;;;;;12.83;6.13;;;;;;;15.77;100.00;101410.09;5017930;28;20870;-44
2022/08/01 05:51:44;;;;;;;9.30;6.00;;;;;;;15.76;100.00;101416.50;5018157;28;20837;-43
2022/08/01 05:54:11;;;;;;;7.80;5.57;;;;;;;15.79;100.00;101422.28;5017743;28;20788;-44
2022/08/01 05:56:39;;;;;;;7.57;5.40;;;;;;;15.82;100.00;101424.53;5018209;28;20838;-44
2022/08/01 05:59:07;;;;;;;7.73;5.13;;;;;;;15.98;100.00;101425.88;5017259;28;20571;-44
2022/08/01 06:01:35;;;;;;;6.90;4.93;;;;;;;16.01;100.00;101428.97;5018170;28;20425;-43
2022/08/01 06:04:02;;;;;;;8.70;5.07;;;;;;;16.30;100.00;101435.66;5018050;28;20440;-43
2022/08/01 06:06:31;;;;;;;11.03;5.90;;;;;;;16.59;100.00;101442.31;5018051;28;20818;-43
2022/08/01 06:08:59;;;;;;;9.43;6.63;;;;;;;16.72;100.00;101433.31;5017589;28;20511;-45
2022/08/01 06:11:26;;;;;;;13.70;6.23;;;;;;;16.94;100.00;101432.66;5018366;28;20437;-42
2022/08/01 06:13:54;;;;;;;11.87;5.80;;;;;;;17.36;97.44;101440.97;5018840;28;20440;-43
2022/08/01 06:16:22;;;;;;;19.87;6.23;;;;;;;18.07;89.84;101439.25;5017598;28;20463;-42
2022/08/01 06:18:49;;;;;;;10.70;5.77;;;;;;;18.27;85.27;101447.09;5017371;28;20460;-45
2022/08/01 06:21:23;;;;;;;10.17;5.07;;;;;;;18.80;81.33;101436.31;5014174;28;20563;-42
2022/08/01 06:23:52;;;;;;;12.23;5.37;;;;;;;19.25;77.54;101456.31;5014518;28;20447;-42
2022/08/01 06:26:20;;;;;;;14.10;5.67;;;;;;;19.67;75.83;101446.16;5014514;28;20823;-43
2022/08/01 06:28:48;;;;;;;13.60;6.17;;;;;;;20.01;73.34;101457.09;5013538;28;20464;-45
2022/08/01 06:31:15;;;;;;;12.10;6.80;;;;;;;20.10;71.35;101450.25;5014209;28;20433;-44
2022/08/01 06:33:43;;;;;;;17.37;7.07;;;;;;;20.65;69.61;101458.56;5014019;28;20926;-44
2022/08/01 06:36:10;;;;;;;15.03;6.90;;;;;;;21.15;65.13;101443.09;5014257;28;20449;-41
2022/08/01 06:38:38;;;;;;;12.37;6.23;;;;;;;21.12;64.41;101448.22;5014137;28;20465;-43
2022/08/01 06:41:07;;;;;;;13.10;6.10;;;;;;;20.94;65.04;101454.69;5014456;28;20432;-43
2022/08/01 06:43:35;;;;;;;7.60;5.80;;;;;;;21.43;61.70;101470.09;5013741;28;20445;-43
2022/08/01 06:46:03;;;;;;;12.40;7.10;;;;;;;21.72;61.02;101462.59;5014174;28;20472;-42
2022/08/01 06:48:30;;;;;;;9.00;5.70;;;;;;;22.43;59.62;101466.16;5013871;28;20476;-43
2022/08/01 06:51:08;;;;;;;9.60;6.17;;;;;;;22.40;59.13;101475.63;5014283;28;20473;-47
2022/08/01 06:53:37;;;;;;;10.10;5.83;;;;;;;22.24;57.38;101473.00;5014263;28;20448;-45
2022/08/01 06:56:08;;;;;;;12.03;5.93;;;;;;;20.98;61.85;101480.25;5014157;28;20456;-40
2022/08/01 06:58:36;;;;;;;11.10;6.37;;;;;;;20.04;64.20;101478.28;5013844;28;20472;-43
2022/08/01 07:01:05;;;;;;;14.40;6.97;;;;;;;19.50;67.45;101491.25;5013783;28;20432;-41
2022/08/01 07:03:33;;;;;;;9.60;6.37;;;;;;;20.16;68.83;101476.34;5013950;28;20933;-43
2022/08/01 07:06:20;;;;;;;18.50;6.40;;;;;;;20.99;62.59;101487.31;5014274;28;20503;-43
2022/08/01 07:08:48;;;;;;;7.77;5.30;;;;;;;21.10;61.78;101486.44;5013740;28;20452;-44
2022/08/01 07:11:17;;;;;;;13.20;6.07;;;;;;;21.68;60.33;101488.63;5012856;28;20473;-44
2022/08/01 07:13:45;;;;;;;11.77;6.33;;;;;;;21.52;58.78;101490.31;5013616;28;20447;-48
2022/08/01 07:16:13;;;;;;;10.20;6.37;;;;;;;21.11;60.26;101489.97;5013748;28;20466;-44
2022/08/01 07:18:41;;;;;;;9.87;5.30;;;;;;;21.67;56.17;101492.41;5013366;28;20464;-43
2022/08/01 07:21:09;;;;;;;9.23;6.53;;;;;;;21.88;57.54;101499.78;5015583;28;20801;-43
2022/08/01 07:23:57;;;;;;;10.60;5.53;;;;;;;22.12;57.97;101491.34;5013474;28;20437;-43
2022/08/01 07:26:27;;;;;;;13.97;5.47;;;;;;;22.56;58.30;101499.16;5013168;28;20452;-47
2022/08/01 07:28:55;;;;;;;9.13;5.03;;;;;;;22.45;57.42;101497.44;5013066;28;20997;-44
2022/08/01 07:31:23;;;;;;;10.73;5.60;;;;;;;22.50;57.32;101499.34;5013072;28;20572;-46
2022/08/01 07:33:54;;;;;;;9.00;5.10;;;;;;;21.37;56.30;101503.66;5012956;28;20432;-44
2022/08/01 07:36:22;;;;;;;10.47;5.20;;;;;;;21.24;59.18;101504.00;5013222;28;20853;-41
2022/08/01 07:38:50;;;;;;;11.47;5.90;;;;;;;20.96;58.56;101498.66;5012648;28;20460;-44
2022/08/01 07:41:17;;;;;;;11.20;5.60;;;;;;;21.22;57.83;101514.28;5013215;28;20436;-43
2022/08/01 07:43:47;;;;;;;8.83;5.27;;;;;;;21.30;57.11;101510.31;5012891;28;20437;-46
2022/08/01 07:46:25;;;;;;;11.23;5.50;;;;;;;21.70;55.33;101512.78;5012923;28;20813;-43
2022/08/01 07:48:53;;;;;;;12.70;6.47;;;;;;;21.61;57.29;101511.59;5012467;28;20487;-45
2022/08/01 07:51:20;;;;;;;10.37;6.13;;;;;;;21.64;57.24;101514.63;5013110;28;20476;-42
2022/08/01 07:53:48;;;;;;;8.97;6.00;;;;;;;21.69;56.99;101522.00;5012521;28;20440;-44
2022/08/01 07:56:16;;;;;;;7.53;5.30;;;;;;;21.01;60.20;101520.44;5013041;28;20453;-43
2022/08/01 07:58:43;;;;;;;7.20;5.50;;;;;;;20.63;60.06;101525.75;5012321;28;20472;-44
2022/08/01 08:01:13;;;;;;;5.27;4.63;;;;;;;19.76;59.10;101541.31;5011890;28;20794;-41
2022/08/01 08:03:40;;;;;;;10.47;6.43;;;;;;;19.54;62.70;101545.66;5009079;28;20445;-42
2022/08/01 08:06:08;;;;;;;9.30;5.30;;;;;;;19.31;61.46;101535.66;5011786;28;20463;-44
2022/08/01 08:08:36;;;;;;;10.97;5.33;;;;;;;19.46;63.54;101544.16;5010574;28;20468;-42
2022/08/01 08:11:03;;;;;;;12.07;5.43;;;;;;;19.55;63.82;101547.34;5012803;28;20479;-43
2022/08/01 08:13:31;;;;;;;6.67;4.83;;;;;;;19.34;63.23;101549.53;5012273;28;20447;-44
2022/08/01 08:15:59;;;;;;;11.47;5.37;;;;;;;19.11;63.00;101543.28;5012618;28;20461;-44
2022/08/01 08:18:28;;;;;;;10.00;5.00;;;;;;;19.45;64.18;101547.91;5012226;28;20472;-42
2022/08/01 08:20:56;;;;;;;7.60;4.70;;;;;;;19.50;62.55;101541.81;5012676;28;20463;-44
2022/08/01 08:26:10;;;;;;;9.90;4.43;;;;;;;19.31;59.95;101541.06;5012374;28;20514;-44
2022/08/01 08:28:38;;;;;;;6.73;4.57;;;;;;;19.16;60.12;101552.34;5012113;28;20486;-44
2022/08/01 08:31:07;;;;;;;6.50;4.80;;;;;;;19.60;58.25;101555.56;5012559;28;20480;-43
2022/08/01 08:33:56;;;;;;;7.97;4.60;;;;;;;19.52;60.42;101554.03;5011794;28;20425;-44
2022/08/01 08:36:23;;;;;;;13.43;5.27;;;;;;;19.72;59.59;101564.50;5004615;28;20448;-41
2022/08/01 08:39:00;;;;;;;9.23;4.70;;;;;;;19.98;58.41;101565.88;5012071;28;21008;-43
2022/08/01 08:41:27;;;;;;;6.70;4.00;;;;;;;19.85;57.69;101565.06;5012709;28;20520;-43
2022/08/01 08:44:05;;;;;;;7.40;4.50;;;;;;;20.04;58.42;101571.13;5011595;28;20904;-43
2022/08/01 08:46:41;;;;;;;7.13;4.40;;;;;;;20.19;59.08;101571.47;5012430;28;20451;-44
2022/08/01 08:49:11;;;;;;;7.97;4.30;;;;;;;20.00;57.17;101572.69;5010358;28;20461;-43
2022/08/01 08:51:40;;;;;;;8.63;4.73;;;;;;;19.81;58.50;101568.47;5010449;28;20492;-45
2022/08/01 08:54:11;;;;;;;7.07;4.33;;;;;;;19.68;59.94;101574.97;5011909;28;20810;-43
2022/08/01 08:56:39;;;;;;;4.80;4.33;;;;;;;19.54;60.01;101578.97;5011926;28;20460;-41
2022/08/01 08:59:06;;;;;;;6.70;4.57;;;;;;;19.74;60.76;101565.88;5011524;28;20464;-44
2022/08/01 09:01:35;;;;;;;10.20;5.70;;;;;;;19.44;59.32;101575.22;5012094;28;20433;-44
2022/08/01 09:04:03;;;;;;;12.40;5.40;;;;;;;19.82;60.88;101575.53;5011626;28;20440;-42
2022/08/01 09:06:33;;;;;;;9.83;4.60;;;;;;;19.95;59.73;101580.69;5012098;28;20453;-43
2022/08/01 09:09:01;;;;;;;7.73;4.90;;;;;;;20.01;60.18;101568.91;5002943;28;20455;-44
2022/08/01 09:11:29;;;;;;;8.27;5.00;;;;;;;19.81;61.62;101576.59;5011668;28;20479;-46
2022/08/01 09:14:06;;;;;;;7.03;5.20;;;;;;;19.73;60.83;101569.69;5011269;28;20455;-45
2022/08/01 09:16:35;;;;;;;9.63;4.90;;;;;;;19.72;61.82;101576.13;5002261;28;20464;-43
2022/08/01 09:19:20;;;;;;;11.30;5.60;;;;;;;19.74;59.57;101579.41;5009597;28;20478;-41
2022/08/01 09:22:10;;;;;;;8.90;4.30;;;;;;;19.88;60.19;101580.84;5011391;28;20424;-45
2022/08/01 09:24:40;;;;;;;7.07;4.20;;;;;;;20.06;58.95;101579.88;5011526;28;20443;-47
2022/08/01 09:27:18;;;;;;;7.03;4.20;;;;;;;19.86;57.98;101580.22;5011432;28;20452;-43
2022/08/01 09:29:49;;;;;;;10.03;4.57;;;;;;;19.65;64.09;101583.53;5011113;28;20466;-44
2022/08/01 09:32:29;;;;;;;5.67;5.17;;;;;;;19.50;62.98;101595.91;5007760;28;20472;-44
2022/08/01 09:35:23;;;;;;;5.40;4.80;;;;;;;19.57;61.32;101596.59;5011134;28;20973;-43
2022/08/01 09:40:53;;;;;;;8.83;4.93;;;;;;;19.77;56.94;101594.38;5088856;27;20515;-47
2022/08/01 09:43:25;;;;;;;5.03;4.27;;;;;;;20.02;59.97;101603.06;5088730;28;20476;-43
2022/08/01 09:45:54;;;;;;;6.13;4.27;;;;;;;19.85;58.68;101605.69;5089079;28;20453;-43
2022/08/01 09:48:24;;;;;;;5.10;4.30;;;;;;;19.99;57.03;101600.00;5065337;28;20584;-43
2022/08/01 09:50:57;;;;;;;6.67;4.50;;;;;;;19.63;54.78;101595.66;5046354;28;20510;-44
2022/08/01 09:53:45;;;;;;;6.90;4.47;;;;;;;19.65;57.95;101604.41;5039808;28;20435;-44
2022/08/01 09:56:21;;;;;;;8.97;4.83;;;;;;;19.82;55.48;101597.19;5047081;28;20451;-42
2022/08/01 09:58:51;;;;;;;7.80;4.53;;;;;;;19.83;55.49;101601.56;5034847;28;20458;-45
2022/08/01 10:01:26;;;;;;;6.97;4.30;;;;;;;20.23;56.44;101607.84;5035557;28;20438;-44
2022/08/01 10:04:06;;;;;;;14.50;5.63;;;;;;;20.22;54.66;101606.19;5040259;28;20442;-43
2022/08/01 10:06:37;;;;;;;6.70;4.33;;;;;;;20.24;55.63;101625.75;5039592;28;20446;-43
2022/08/01 10:09:05;;;;;;;7.97;4.83;;;;;;;20.10;55.79;101610.81;5037458;28;20455;-42
2022/08/01 10:11:36;;;;;;;5.33;4.40;;;;;;;20.15;57.22;101604.69;5037190;28;20430;-46
2022/08/01 10:14:07;;;;;;;8.70;4.63;;;;;;;20.15;57.16;101612.81;5042172;28;20467;-42
2022/08/01 10:16:36;;;;;;;6.20;4.83;;;;;;;20.10;58.84;101613.50;5043296;28;20543;-43
2022/08/01 10:19:07;;;;;;;9.80;4.80;;;;;;;20.19;56.35;101614.78;5028959;28;20476;-43
2022/08/01 10:21:43;;;;;;;5.03;4.10;;;;;;;20.30;54.08;101613.16;5044144;28;20430;-44
2022/08/01 10:24:27;;;;;;;7.60;4.43;;;;;;;20.85;53.74;101605.28;5043144;28;20808;-43
2022/08/01 10:27:02;;;;;;;5.60;4.33;;;;;;;20.88;53.93;101607.50;5042159;28;20466;-43
2022/08/01 10:29:38;;;;;;;7.93;4.10;;;;;;;20.35;52.13;101607.84;5043685;28;20829;-43
2022/08/01 10:32:14;;;;;;;8.00;4.03;;;;;;;20.04;52.24;101625.28;5034080;28;20431;-43
2022/08/01 10:34:42;;;;;;;7.20;3.80;;;;;;;20.12;51.73;101619.53;5055693;28;20484;-44
2022/08/01 10:37:13;;;;;;;6.73;4.70;;;;;;;20.53;53.68;101604.94;5048293;28;20798;-43
2022/08/01 10:39:42;;;;;;;9.43;4.50;;;;;;;20.35;53.10;101626.81;5047244;28;20474;-44
2022/08/01 10:42:12;;;;;;;12.47;3.87;;;;;;;20.15;52.87;101627.19;5047839;28;20800;-43
2022/08/01 10:44:45;;;;;;;6.73;3.83;;;;;;;20.30;53.84;101629.41;5048176;28;20434;-46
2022/08/01 10:47:18;;;;;;;4.27;3.97;;;;;;;20.69;50.30;101627.75;5047879;28;20454;-45
2022/08/01 10:50:02;;;;;;;5.07;4.50;;;;;;;20.84;51.03;101623.47;5047539;28;20670;-44
2022/08/01 10:52:31;;;;;;;6.10;4.77;;;;;;;20.64;49.84;101624.97;5033808;28;20431;-44
2022/08/01 10:55:09;;;;;;;6.27;4.80;;;;;;;20.54;51.49;101622.88;5034703;28;20426;-43
2022/08/01 10:57:46;;;;;;;10.37;5.83;;;;;;;20.82;50.84;101627.44;5033965;28;20987;-43
2022/08/01 11:00:20;;;;;;;6.73;4.77;;;;;;;21.36;51.50;101624.13;5034315;28;20470;-44
2022/08/01 11:03:00;;;;;;;7.00;5.07;;;;;;;21.47;49.98;101617.78;5034113;28;20439;-43
2022/08/01 11:05:31;;;;;;;6.33;4.63;;;;;;;21.14;50.41;101625.09;5033910;28;20438;-44
2022/08/01 11:08:02;;;;;;;6.77;4.50;;;;;;;20.82;49.40;101620.16;5033838;28;20538;-44
2022/08/01 11:10:37;;;;;;;7.30;5.00;;;;;;;20.64;52.79;101631.19;5034235;28;20439;-45
2022/08/01 11:13:08;;;;;;;5.33;4.50;;;;;;;20.76;51.75;101639.25;5034213;28;20843;-42
2022/08/01 11:15:36;;;;;;;4.13;3.53;;;;;;;20.70;51.49;101630.22;5034163;28;20470;-42
2022/08/01 11:18:50;;;;;;;7.03;4.13;;;;;;;20.94;50.25;101620.09;5033713;28;20988;-45
2022/08/01 11:21:19;;;;;;;4.20;3.67;;;;;;;20.92;52.10;101631.19;5023088;28;20996;-48
2022/08/01 11:24:06;;;;;;;7.50;4.70;;;;;;;20.99;51.13;101622.91;5033971;28;20435;-44
2022/08/01 11:26:36;;;;;;;4.70;4.07;;;;;;;20.97;53.14;101631.28;5034005;28;20459;-43
2022/08/01 11:29:18;;;;;;;4.50;3.83;;;;;;;20.80;51.24;101626.88;5033507;28;20463;-43
2022/08/01 11:31:49;;;;;;;8.27;4.63;;;;;;;20.85;50.28;101622.38;5033400;28;20843;-46
2022/08/01 11:34:17;;;;;;;7.20;4.57;;;;;;;20.95;51.47;101627.16;5028132;28;20448;-44
2022/08/01 11:36:46;;;;;;;8.87;4.27;;;;;;;21.53;51.47;101630.34;5044929;28;20454;-43
2022/08/01 11:39:30;;;;;;;9.10;4.83;;;;;;;21.82;51.66;101628.38;5052937;28;20505;-42
2022/08/01 11:42:19;;;;;;;10.10;4.53;;;;;;;21.91;50.09;101635.06;5053402;28;20434;-42